AirNav   TITAN Aviation Fuels
 
 373 users online  

LA88 Lasalle General Hospital Heliport
Jena, Louisiana, USA

GOING TO JENA?


FAA INFORMATION EFFECTIVE 08 SEPTEMBER 2022

Location

FAA Identifier: LA88
Lat/Long: 31-41-38.0000N 092-09-25.0000W
31-41.633333N 092-09.416667W
31.6938889,-92.1569444
(estimated)
Elevation: 220 ft. / 67 m (estimated)
From city: 1 mile S of JENA, LA
Time zone: UTC -5 (UTC -6 during Standard Time)
Zip code: 71371

Heliport Operations

Heliport use: Private use. Permission required prior to landing
Activation date: 02/2015
Control tower: no
ARTCC: HOUSTON CENTER
FSS: DE RIDDER FLIGHT SERVICE STATION
Attendance: CONTINUOUS
Wind indicator: yes
Segmented circle: no

Heliport Communications

WX ASOS at ESF (19 nm S): 119.425 (318-484-9031)

Nearby radio navigation aids

VOR radial/distance  VOR name  Freq  Var
SWBr120/31.4SAWMILL VOR/DME113.7502E
AEXr031/31.6ALEXANDRIA VORTAC116.1003E

Heliport Services

Runway Information

Helipad H1

Dimensions: 20 x 20 ft. / 6 x 6 m
Surface: concrete, in good condition
Traffic pattern: leftleft

Heliport Ownership and Management from official FAA records

Ownership: Privately-owned
Owner: HOSP SVC DIST #2 OF LASALLE PARISH
P.O. BOX 2780
JENA, LA 71342
Phone (318) 992-9200
Manager: EMERG ROOM SUPVR
P.O. BOX 2780
JENA, LA 71342
Phone (318) 992-9136

Additional Remarks

FOR CD CTC POLK APCH AT 337-531-2352.

Instrument Procedures

There are no published instrument procedures at LA88.

Some nearby airports with instrument procedures:

KESF - Esler Regional Airport (19 nm S)
KAEX - Alexandria International Airport (30 nm SW)
0R5 - David G Joyce Airport (30 nm NW)
0R4 - Concordia Parish Airport (34 nm E)
KMKV - Marksville Municipal Airport (36 nm S)
 
Loc | Ops | Rwys | IFR | FBO | Links
Com | Nav | Svcs | Stats | Notes
Aerial photo
No photo
 
Airport distance calculator
Flying to Lasalle General Hospital Heliport? Find the distance to fly.

From to LA88

Sunrise and sunset
Times for 02-Oct-2022
 Local
(UTC-5)
 Zulu
(UTC)
Morning civil twilight06:4011:40
Sunrise07:0412:04
Sunset18:5223:52
Evening civil twilight19:1600:16

Current date and time
Zulu (UTC)  02-Oct-2022 09:01:57
Local (UTC-5)  02-Oct-2022 04:01:57
 
METAR
KESF 
19nm S 
020855Z AUTO 00000KT 3SM BR CLR 09/09 A3007 RMK AO2 T00890089 $
KAEX 
30nm SW 
020853Z 00000KT 10SM CLR 11/09 A3007 RMK AO2 SLP184 T01060089 53004 $
K0R4 
34nm E 
020855Z AUTO 00000KT 10SM CLR 09/08 A3006 RMK AO2 T00900079
TAF
KAEX 
30nm SW 
020520Z 0206/0306 00000KT P6SM SKC FM021700 02008KT P6SM FEW250 FM030100 VRB03KT P6SM FEW250
NOTAMs
Click for the latest NOTAMs
NOTAMs are issued by the DoD/FAA and will open in a separate window not controlled by AirNav.

 

 
 

Would you like to see your business listed on this page?

 If your business provides an interesting product or service to pilots, flight crews, aircraft, or users of the Lasalle General Hospital Heliport, you should consider listing it here.  To start the listing process, click on the button below
 
Add a business
 

Other Pages about Lasalle General Hospital Heliport

Update a link
 
Copyright © AirNav, LLC. All rights reserved. Privacy Policy  Contact